sensor_id;sensor_type;location;lat;lon;timestamp;pressure;altitude;pressure_sealevel;temperature;humidity
5574;BME280;2563;52.242;7.956;2024-03-07T00:01:44;102048.06;;;3.85;100.00
5574;BME280;2563;52.242;7.956;2024-03-07T00:04:10;102033.53;;;3.81;100.00
5574;BME280;2563;52.242;7.956;2024-03-07T00:06:35;102026.75;;;3.81;100.00
5574;BME280;2563;52.242;7.956;2024-03-07T00:09:00;102005.75;;;3.90;100.00
5574;BME280;2563;52.242;7.956;2024-03-07T00:11:27;101990.63;;;3.96;100.00
5574;BME280;2563;52.242;7.956;2024-03-07T00:13:53;101970.97;;;3.91;100.00
5574;BME280;2563;52.242;7.956;2024-03-07T00:16:19;101947.94;;;3.86;100.00
5574;BME280;2563;52.242;7.956;2024-03-07T00:18:45;101924.03;;;3.81;100.00
5574;BME280;2563;52.242;7.956;2024-03-07T00:21:11;101900.03;;;3.73;100.00
5574;BME280;2563;52.242;7.956;2024-03-07T00:23:36;101894.88;;;3.70;100.00
5574;BME280;2563;52.242;7.956;2024-03-07T00:26:01;101864.00;;;3.57;100.00
5574;BME280;2563;52.242;7.956;2024-03-07T00:28:27;101844.97;;;3.45;100.00
5574;BME280;2563;52.242;7.956;2024-03-07T00:30:57;101832.97;;;3.39;100.00
5574;BME280;2563;52.242;7.956;2024-03-07T00:33:23;101827.88;;;3.39;100.00
5574;BME280;2563;52.242;7.956;2024-03-07T00:35:49;101826.16;;;3.38;100.00
5574;BME280;2563;52.242;7.956;2024-03-07T00:38:14;101821.88;;;3.37;100.00
5574;BME280;2563;52.242;7.956;2024-03-07T00:40:40;101821.69;;;3.29;100.00
5574;BME280;2563;52.242;7.956;2024-03-07T00:43:05;101822.56;;;3.30;100.00
5574;BME280;2563;52.242;7.956;2024-03-07T00:45:31;101808.59;;;3.15;100.00
5574;BME280;2563;52.242;7.956;2024-03-07T00:47:57;101797.31;;;3.04;100.00
5574;BME280;2563;52.242;7.956;2024-03-07T00:50:23;101791.97;;;2.96;100.00
5574;BME280;2563;52.242;7.956;2024-03-07T00:52:49;101789.56;;;2.69;100.00
5574;BME280;2563;52.242;7.956;2024-03-07T00:55:15;101778.84;;;2.51;100.00
5574;BME280;2563;52.242;7.956;2024-03-07T00:57:40;101779.50;;;2.44;100.00
5574;BME280;2563;52.242;7.956;2024-03-07T01:00:06;101776.94;;;2.42;100.00
5574;BME280;2563;52.242;7.956;2024-03-07T01:02:42;101779.00;;;2.27;100.00
5574;BME280;2563;52.242;7.956;2024-03-07T01:05:12;101797.47;;;2.21;100.00
5574;BME280;2563;52.242;7.956;2024-03-07T01:07:40;101788.84;;;2.16;100.00
5574;BME280;2563;52.242;7.956;2024-03-07T01:10:06;101808.31;;;2.16;100.00
5574;BME280;2563;52.242;7.956;2024-03-07T01:12:34;101826.91;;;2.15;100.00
5574;BME280;2563;52.242;7.956;2024-03-07T01:15:00;101843.00;;;2.15;100.00
5574;BME280;2563;52.242;7.956;2024-03-07T01:17:26;101848.84;;;1.85;100.00
5574;BME280;2563;52.242;7.956;2024-03-07T01:19:51;101863.75;;;1.76;100.00
5574;BME280;2563;52.242;7.956;2024-03-07T01:22:17;101882.34;;;1.75;100.00
5574;BME280;2563;52.242;7.956;2024-03-07T01:24:42;101906.81;;;1.73;100.00
5574;BME280;2563;52.242;7.956;2024-03-07T01:27:08;101919.41;;;1.70;100.00
5574;BME280;2563;52.242;7.956;2024-03-07T01:29:34;101939.91;;;1.76;100.00
5574;BME280;2563;52.242;7.956;2024-03-07T01:32:00;101952.78;;;1.57;100.00
5574;BME280;2563;52.242;7.956;2024-03-07T01:34:25;101970.09;;;1.44;100.00
5574;BME280;2563;52.242;7.956;2024-03-07T01:36:50;101986.66;;;1.35;100.00
5574;BME280;2563;52.242;7.956;2024-03-07T01:39:15;102002.97;;;1.19;100.00
5574;BME280;2563;52.242;7.956;2024-03-07T01:41:41;102022.13;;;1.11;100.00
5574;BME280;2563;52.242;7.956;2024-03-07T01:44:06;102038.69;;;1.02;100.00
5574;BME280;2563;52.242;7.956;2024-03-07T01:46:32;102059.44;;;1.15;100.00
5574;BME280;2563;52.242;7.956;2024-03-07T01:48:58;102072.69;;;1.08;100.00
5574;BME280;2563;52.242;7.956;2024-03-07T01:51:24;102098.13;;;1.09;100.00
5574;BME280;2563;52.242;7.956;2024-03-07T01:53:51;102123.06;;;0.98;100.00
5574;BME280;2563;52.242;7.956;2024-03-07T01:56:17;102128.00;;;0.95;100.00
5574;BME280;2563;52.242;7.956;2024-03-07T01:58:46;102132.81;;;0.89;100.00
5574;BME280;2563;52.242;7.956;2024-03-07T02:01:12;102171.25;;;0.79;100.00
5574;BME280;2563;52.242;7.956;2024-03-07T02:03:40;102189.81;;;0.78;100.00
5574;BME280;2563;52.242;7.956;2024-03-07T02:06:05;102191.28;;;0.73;100.00
5574;BME280;2563;52.242;7.956;2024-03-07T02:08:31;102202.03;;;0.67;100.00
5574;BME280;2563;52.242;7.956;2024-03-07T02:10:58;102207.81;;;0.64;100.00
5574;BME280;2563;52.242;7.956;2024-03-07T02:13:23;102207.44;;;0.55;100.00
5574;BME280;2563;52.242;7.956;2024-03-07T02:15:48;102193.66;;;0.50;100.00
5574;BME280;2563;52.242;7.956;2024-03-07T02:18:14;102186.28;;;0.55;100.00
5574;BME280;2563;52.242;7.956;2024-03-07T02:20:45;102194.47;;;0.49;100.00
5574;BME280;2563;52.242;7.956;2024-03-07T02:23:13;102201.75;;;0.61;100.00
5574;BME280;2563;52.242;7.956;2024-03-07T02:25:39;102209.97;;;0.75;100.00
5574;BME280;2563;52.242;7.956;2024-03-07T02:28:05;102229.56;;;0.59;100.00
5574;BME280;2563;52.242;7.956;2024-03-07T02:30:31;102232.28;;;0.64;100.00
5574;BME280;2563;52.242;7.956;2024-03-07T02:32:59;102227.63;;;0.54;100.00
5574;BME280;2563;52.242;7.956;2024-03-07T02:35:32;102215.00;;;0.36;100.00
5574;BME280;2563;52.242;7.956;2024-03-07T02:37:59;102208.88;;;0.31;100.00
5574;BME280;2563;52.242;7.956;2024-03-07T02:40:24;102214.09;;;0.34;100.00
5574;BME280;2563;52.242;7.956;2024-03-07T02:42:50;102209.56;;;0.27;100.00
5574;BME280;2563;52.242;7.956;2024-03-07T02:45:15;102218.06;;;0.29;100.00
5574;BME280;2563;52.242;7.956;2024-03-07T02:47:41;102231.41;;;0.25;100.00
5574;BME280;2563;52.242;7.956;2024-03-07T02:50:08;102240.59;;;0.23;100.00
5574;BME280;2563;52.242;7.956;2024-03-07T02:52:34;102245.22;;;0.31;100.00
5574;BME280;2563;52.242;7.956;2024-03-07T02:55:00;102246.31;;;0.18;100.00
5574;BME280;2563;52.242;7.956;2024-03-07T02:57:25;102251.50;;;0.21;100.00
5574;BME280;2563;52.242;7.956;2024-03-07T02:59:50;102256.44;;;0.18;100.00
5574;BME280;2563;52.242;7.956;2024-03-07T03:02:16;102258.44;;;0.26;100.00
5574;BME280;2563;52.242;7.956;2024-03-07T03:04:42;102266.00;;;0.24;100.00
5574;BME280;2563;52.242;7.956;2024-03-07T03:07:07;102258.69;;;0.12;100.00
5574;BME280;2563;52.242;7.956;2024-03-07T03:09:33;102281.28;;;0.08;100.00
5574;BME280;2563;52.242;7.956;2024-03-07T03:11:58;102286.97;;;0.04;100.00
5574;BME280;2563;52.242;7.956;2024-03-07T03:14:24;102294.34;;;-0.01;100.00
5574;BME280;2563;52.242;7.956;2024-03-07T03:16:49;102292.06;;;-0.14;100.00
5574;BME280;2563;52.242;7.956;2024-03-07T03:19:15;102295.50;;;-0.12;100.00
5574;BME280;2563;52.242;7.956;2024-03-07T03:21:40;102303.91;;;-0.13;100.00
5574;BME280;2563;52.242;7.956;2024-03-07T03:24:06;102321.75;;;-0.10;100.00
5574;BME280;2563;52.242;7.956;2024-03-07T03:26:32;102322.56;;;-0.11;100.00
5574;BME280;2563;52.242;7.956;2024-03-07T03:28:58;102335.28;;;-0.10;100.00
5574;BME280;2563;52.242;7.956;2024-03-07T03:31:23;102341.53;;;-0.19;100.00
5574;BME280;2563;52.242;7.956;2024-03-07T03:33:49;102349.00;;;-0.23;100.00
5574;BME280;2563;52.242;7.956;2024-03-07T03:36:16;102344.91;;;-0.37;100.00
5574;BME280;2563;52.242;7.956;2024-03-07T03:38:41;102361.22;;;-0.48;100.00
5574;BME280;2563;52.242;7.956;2024-03-07T03:41:06;102366.44;;;-0.45;100.00
5574;BME280;2563;52.242;7.956;2024-03-07T03:43:32;102367.84;;;-0.34;100.00
5574;BME280;2563;52.242;7.956;2024-03-07T03:45:57;102391.50;;;0.01;100.00
5574;BME280;2563;52.242;7.956;2024-03-07T03:48:23;102388.66;;;-0.05;100.00
5574;BME280;2563;52.242;7.956;2024-03-07T03:50:48;102391.50;;;-0.33;100.00
5574;BME280;2563;52.242;7.956;2024-03-07T03:53:13;102399.34;;;-0.45;100.00
5574;BME280;2563;52.242;7.956;2024-03-07T03:55:39;102401.88;;;-0.45;100.00
5574;BME280;2563;52.242;7.956;2024-03-07T03:58:04;102410.69;;;-0.37;100.00
5574;BME280;2563;52.242;7.956;2024-03-07T04:00:32;102411.81;;;-0.48;100.00
5574;BME280;2563;52.242;7.956;2024-03-07T04:02:58;102407.41;;;-0.52;100.00
5574;BME280;2563;52.242;7.956;2024-03-07T04:05:24;102397.91;;;-0.56;100.00
5574;BME280;2563;52.242;7.956;2024-03-07T04:07:49;102398.25;;;-0.67;100.00
5574;BME280;2563;52.242;7.956;2024-03-07T04:10:17;102374.44;;;-0.70;100.00
5574;BME280;2563;52.242;7.956;2024-03-07T04:12:43;102376.00;;;-0.72;100.00
5574;BME280;2563;52.242;7.956;2024-03-07T04:15:10;102390.19;;;-0.76;100.00
5574;BME280;2563;52.242;7.956;2024-03-07T04:17:36;102396.81;;;-0.78;100.00
5574;BME280;2563;52.242;7.956;2024-03-07T04:20:03;102399.25;;;-0.79;100.00
5574;BME280;2563;52.242;7.956;2024-03-07T04:22:33;102403.53;;;-0.62;100.00
5574;BME280;2563;52.242;7.956;2024-03-07T04:24:59;102406.53;;;-0.69;100.00
5574;BME280;2563;52.242;7.956;2024-03-07T04:27:25;102416.53;;;-0.87;100.00
5574;BME280;2563;52.242;7.956;2024-03-07T04:29:51;102400.13;;;-0.95;100.00
5574;BME280;2563;52.242;7.956;2024-03-07T04:32:17;102398.38;;;-0.96;100.00
5574;BME280;2563;52.242;7.956;2024-03-07T04:34:45;102410.78;;;-0.52;100.00
5574;BME280;2563;52.242;7.956;2024-03-07T04:37:11;102403.34;;;-0.81;100.00
5574;BME280;2563;52.242;7.956;2024-03-07T04:39:38;102404.53;;;-0.75;100.00
5574;BME280;2563;52.242;7.956;2024-03-07T04:42:04;102412.59;;;-0.82;100.00
5574;BME280;2563;52.242;7.956;2024-03-07T04:44:31;102411.63;;;-0.84;100.00
5574;BME280;2563;52.242;7.956;2024-03-07T04:46:58;102421.78;;;-0.68;100.00
5574;BME280;2563;52.242;7.956;2024-03-07T04:49:26;102423.03;;;-0.76;100.00
5574;BME280;2563;52.242;7.956;2024-03-07T04:51:52;102423.66;;;-0.80;100.00
5574;BME280;2563;52.242;7.956;2024-03-07T04:54:21;102426.50;;;-0.90;100.00
5574;BME280;2563;52.242;7.956;2024-03-07T04:56:49;102428.44;;;-1.01;100.00
5574;BME280;2563;52.242;7.956;2024-03-07T04:59:15;102434.88;;;-0.75;100.00
5574;BME280;2563;52.242;7.956;2024-03-07T05:01:41;102445.47;;;-0.82;100.00
5574;BME280;2563;52.242;7.956;2024-03-07T05:04:06;102435.25;;;-1.00;100.00
5574;BME280;2563;52.242;7.956;2024-03-07T05:06:32;102437.28;;;-1.09;100.00
5574;BME280;2563;52.242;7.956;2024-03-07T05:09:03;102439.84;;;-0.93;100.00
5574;BME280;2563;52.242;7.956;2024-03-07T05:11:32;102452.19;;;-0.82;100.00
5574;BME280;2563;52.242;7.956;2024-03-07T05:13:58;102450.78;;;-1.09;100.00
5574;BME280;2563;52.242;7.956;2024-03-07T05:16:30;102457.94;;;-0.85;100.00
5574;BME280;2563;52.242;7.956;2024-03-07T05:18:59;102466.44;;;-0.99;100.00
5574;BME280;2563;52.242;7.956;2024-03-07T05:21:27;102466.34;;;-1.01;100.00
5574;BME280;2563;52.242;7.956;2024-03-07T05:23:59;102464.22;;;-1.10;100.00
5574;BME280;2563;52.242;7.956;2024-03-07T05:26:25;102474.53;;;-1.21;100.00
5574;BME280;2563;52.242;7.956;2024-03-07T05:28:51;102478.97;;;-1.17;100.00
5574;BME280;2563;52.242;7.956;2024-03-07T05:31:17;102487.22;;;-1.20;100.00
5574;BME280;2563;52.242;7.956;2024-03-07T05:33:44;102493.69;;;-1.25;100.00
5574;BME280;2563;52.242;7.956;2024-03-07T05:36:09;102490.53;;;-1.21;100.00
5574;BME280;2563;52.242;7.956;2024-03-07T05:38:44;102502.41;;;-1.35;100.00
5574;BME280;2563;52.242;7.956;2024-03-07T05:41:10;102530.13;;;-1.36;100.00
5574;BME280;2563;52.242;7.956;2024-03-07T05:43:37;102541.34;;;-1.31;100.00
5574;BME280;2563;52.242;7.956;2024-03-07T05:46:03;102545.53;;;-1.32;100.00
5574;BME280;2563;52.242;7.956;2024-03-07T05:48:29;102556.94;;;-1.38;100.00
5574;BME280;2563;52.242;7.956;2024-03-07T05:50:54;102572.81;;;-1.26;100.00
5574;BME280;2563;52.242;7.956;2024-03-07T05:53:19;102568.97;;;-1.19;100.00
5574;BME280;2563;52.242;7.956;2024-03-07T05:55:45;102579.97;;;-0.73;100.00
5574;BME280;2563;52.242;7.956;2024-03-07T05:58:11;102582.00;;;-0.51;100.00
5574;BME280;2563;52.242;7.956;2024-03-07T06:00:36;102588.16;;;-0.46;100.00
5574;BME280;2563;52.242;7.956;2024-03-07T06:03:04;102598.78;;;-0.36;100.00
5574;BME280;2563;52.242;7.956;2024-03-07T06:05:30;102603.88;;;-0.20;100.00
5574;BME280;2563;52.242;7.956;2024-03-07T06:07:56;102615.84;;;-0.01;100.00
5574;BME280;2563;52.242;7.956;2024-03-07T06:10:22;102616.97;;;0.04;100.00
5574;BME280;2563;52.242;7.956;2024-03-07T06:12:50;102628.63;;;0.17;100.00
5574;BME280;2563;52.242;7.956;2024-03-07T06:15:16;102626.53;;;0.26;100.00
5574;BME280;2563;52.242;7.956;2024-03-07T06:17:41;102631.34;;;0.38;100.00
5574;BME280;2563;52.242;7.956;2024-03-07T06:20:08;102635.22;;;0.48;100.00
5574;BME280;2563;52.242;7.956;2024-03-07T06:22:48;102638.31;;;0.58;100.00
5574;BME280;2563;52.242;7.956;2024-03-07T06:25:15;102637.13;;;0.68;100.00
5574;BME280;2563;52.242;7.956;2024-03-07T06:27:45;102636.63;;;0.75;100.00
5574;BME280;2563;52.242;7.956;2024-03-07T06:30:14;102643.97;;;0.87;100.00
5574;BME280;2563;52.242;7.956;2024-03-07T06:32:43;102647.50;;;0.91;100.00
5574;BME280;2563;52.242;7.956;2024-03-07T06:35:09;102657.81;;;0.94;100.00
5574;BME280;2563;52.242;7.956;2024-03-07T06:37:35;102675.94;;;1.01;100.00
5574;BME280;2563;52.242;7.956;2024-03-07T06:40:01;102677.19;;;1.10;100.00
5574;BME280;2563;52.242;7.956;2024-03-07T06:42:30;102659.88;;;1.19;100.00
5574;BME280;2563;52.242;7.956;2024-03-07T06:44:58;102663.06;;;1.15;100.00
5574;BME280;2563;52.242;7.956;2024-03-07T06:47:23;102665.25;;;1.25;100.00
5574;BME280;2563;52.242;7.956;2024-03-07T06:49:48;102659.69;;;1.32;100.00
5574;BME280;2563;52.242;7.956;2024-03-07T06:52:14;102664.97;;;1.37;100.00
5574;BME280;2563;52.242;7.956;2024-03-07T06:54:40;102666.28;;;1.46;100.00
5574;BME280;2563;52.242;7.956;2024-03-07T06:57:06;102659.63;;;1.48;100.00
5574;BME280;2563;52.242;7.956;2024-03-07T06:59:31;102662.44;;;1.55;100.00
5574;BME280;2563;52.242;7.956;2024-03-07T07:01:56;102656.72;;;1.59;100.00
5574;BME280;2563;52.242;7.956;2024-03-07T07:04:23;102655.13;;;1.61;100.00
5574;BME280;2563;52.242;7.956;2024-03-07T07:06:50;102653.34;;;1.60;100.00
5574;BME280;2563;52.242;7.956;2024-03-07T07:09:15;102645.09;;;1.64;100.00
5574;BME280;2563;52.242;7.956;2024-03-07T07:11:44;102641.91;;;1.68;100.00
5574;BME280;2563;52.242;7.956;2024-03-07T07:14:10;102633.63;;;1.72;100.00
5574;BME280;2563;52.242;7.956;2024-03-07T07:16:36;102645.78;;;1.79;100.00
5574;BME280;2563;52.242;7.956;2024-03-07T07:19:06;102645.94;;;1.82;100.00
5574;BME280;2563;52.242;7.956;2024-03-07T07:21:32;102633.47;;;1.87;100.00
5574;BME280;2563;52.242;7.956;2024-03-07T07:23:57;102623.63;;;1.75;100.00
5574;BME280;2563;52.242;7.956;2024-03-07T07:26:23;102631.16;;;1.74;100.00
5574;BME280;2563;52.242;7.956;2024-03-07T07:28:48;102622.53;;;1.70;100.00
5574;BME280;2563;52.242;7.956;2024-03-07T07:31:13;102628.47;;;1.70;100.00
5574;BME280;2563;52.242;7.956;2024-03-07T07:33:39;102621.13;;;1.77;100.00
5574;BME280;2563;52.242;7.956;2024-03-07T07:36:04;102615.06;;;1.73;100.00
5574;BME280;2563;52.242;7.956;2024-03-07T07:38:30;102609.28;;;1.77;100.00
5574;BME280;2563;52.242;7.956;2024-03-07T07:40:56;102607.66;;;1.78;100.00
5574;BME280;2563;52.242;7.956;2024-03-07T07:43:22;102608.00;;;1.85;100.00
5574;BME280;2563;52.242;7.956;2024-03-07T07:45:48;102605.44;;;1.85;100.00
5574;BME280;2563;52.242;7.956;2024-03-07T07:48:13;102609.19;;;1.94;100.00
5574;BME280;2563;52.242;7.956;2024-03-07T07:50:41;102591.94;;;1.86;100.00
5574;BME280;2563;52.242;7.956;2024-03-07T07:53:07;102593.41;;;2.01;100.00
5574;BME280;2563;52.242;7.956;2024-03-07T07:55:34;102593.63;;;2.05;100.00
5574;BME280;2563;52.242;7.956;2024-03-07T07:58:00;102585.34;;;2.09;100.00
5574;BME280;2563;52.242;7.956;2024-03-07T08:00:29;102593.03;;;2.11;100.00
5574;BME280;2563;52.242;7.956;2024-03-07T08:03:03;102599.84;;;2.12;100.00
5574;BME280;2563;52.242;7.956;2024-03-07T08:05:31;102587.34;;;2.17;100.00
5574;BME280;2563;52.242;7.956;2024-03-07T08:08:06;102588.88;;;2.32;100.00
5574;BME280;2563;52.242;7.956;2024-03-07T08:10:33;102579.22;;;2.45;100.00
5574;BME280;2563;52.242;7.956;2024-03-07T08:13:01;102569.31;;;2.51;100.00
5574;BME280;2563;52.242;7.956;2024-03-07T08:15:29;102558.19;;;2.49;100.00
5574;BME280;2563;52.242;7.956;2024-03-07T08:17:55;102546.31;;;2.48;100.00
5574;BME280;2563;52.242;7.956;2024-03-07T08:20:22;102552.63;;;2.58;100.00
5574;BME280;2563;52.242;7.956;2024-03-07T08:22:48;102542.91;;;2.68;100.00
5574;BME280;2563;52.242;7.956;2024-03-07T08:25:21;102547.31;;;2.72;100.00
5574;BME280;2563;52.242;7.956;2024-03-07T08:27:49;102551.25;;;2.87;100.00
5574;BME280;2563;52.242;7.956;2024-03-07T08:30:15;102548.69;;;3.08;100.00
5574;BME280;2563;52.242;7.956;2024-03-07T08:32:45;102541.13;;;3.09;100.00
5574;BME280;2563;52.242;7.956;2024-03-07T08:35:12;102542.88;;;3.10;100.00
5574;BME280;2563;52.242;7.956;2024-03-07T08:37:42;102534.59;;;3.16;100.00
5574;BME280;2563;52.242;7.956;2024-03-07T08:40:08;102531.91;;;3.11;100.00
5574;BME280;2563;52.242;7.956;2024-03-07T08:42:45;102509.09;;;3.14;100.00
5574;BME280;2563;52.242;7.956;2024-03-07T08:45:11;102503.34;;;3.18;100.00
5574;BME280;2563;52.242;7.956;2024-03-07T08:47:37;102498.09;;;3.15;100.00
5574;BME280;2563;52.242;7.956;2024-03-07T08:50:04;102494.03;;;3.20;100.00
5574;BME280;2563;52.242;7.956;2024-03-07T08:52:34;102487.41;;;3.24;100.00
5574;BME280;2563;52.242;7.956;2024-03-07T08:55:02;102477.16;;;3.23;100.00
5574;BME280;2563;52.242;7.956;2024-03-07T08:57:28;102472.94;;;3.23;100.00
5574;BME280;2563;52.242;7.956;2024-03-07T08:59:54;102466.69;;;3.37;100.00
5574;BME280;2563;52.242;7.956;2024-03-07T09:02:20;102464.09;;;3.36;100.00
5574;BME280;2563;52.242;7.956;2024-03-07T09:04:45;102461.16;;;3.49;100.00
5574;BME280;2563;52.242;7.956;2024-03-07T09:07:11;102440.84;;;3.75;100.00
5574;BME280;2563;52.242;7.956;2024-03-07T09:09:40;102424.03;;;3.80;100.00
5574;BME280;2563;52.242;7.956;2024-03-07T09:12:05;102419.56;;;3.98;100.00
5574;BME280;2563;52.242;7.956;2024-03-07T09:14:31;102405.81;;;3.93;100.00
5574;BME280;2563;52.242;7.956;2024-03-07T09:16:56;102395.25;;;4.08;100.00
5574;BME280;2563;52.242;7.956;2024-03-07T09:19:22;102382.47;;;4.34;100.00
5574;BME280;2563;52.242;7.956;2024-03-07T09:21:52;102365.28;;;4.28;100.00
5574;BME280;2563;52.242;7.956;2024-03-07T09:24:18;102347.28;;;4.51;100.00
5574;BME280;2563;52.242;7.956;2024-03-07T09:26:47;102313.00;;;4.41;100.00
5574;BME280;2563;52.242;7.956;2024-03-07T09:29:13;102302.00;;;4.72;100.00
5574;BME280;2563;52.242;7.956;2024-03-07T09:31:38;102268.84;;;4.42;100.00
5574;BME280;2563;52.242;7.956;2024-03-07T09:34:05;102259.53;;;4.44;100.00
5574;BME280;2563;52.242;7.956;2024-03-07T09:36:30;102252.00;;;4.18;100.00
5574;BME280;2563;52.242;7.956;2024-03-07T09:38:56;102235.66;;;4.12;100.00
5574;BME280;2563;52.242;7.956;2024-03-07T09:41:22;102223.44;;;4.30;100.00
5574;BME280;2563;52.242;7.956;2024-03-07T09:43:51;102215.66;;;4.24;100.00
5574;BME280;2563;52.242;7.956;2024-03-07T09:46:23;102195.50;;;4.04;100.00
5574;BME280;2563;52.242;7.956;2024-03-07T09:48:49;102184.69;;;4.12;100.00
5574;BME280;2563;52.242;7.956;2024-03-07T09:51:20;102172.78;;;4.11;100.00
5574;BME280;2563;52.242;7.956;2024-03-07T09:53:48;102148.78;;;4.02;100.00
5574;BME280;2563;52.242;7.956;2024-03-07T09:56:17;102141.47;;;4.15;100.00
5574;BME280;2563;52.242;7.956;2024-03-07T09:58:48;102137.28;;;4.17;100.00
5574;BME280;2563;52.242;7.956;2024-03-07T10:01:14;102133.19;;;4.23;100.00
5574;BME280;2563;52.242;7.956;2024-03-07T10:03:43;102125.53;;;4.22;100.00
5574;BME280;2563;52.242;7.956;2024-03-07T10:06:10;102109.97;;;4.13;100.00
5574;BME280;2563;52.242;7.956;2024-03-07T10:08:36;102105.38;;;4.31;100.00
5574;BME280;2563;52.242;7.956;2024-03-07T10:11:02;102104.28;;;4.55;100.00
5574;BME280;2563;52.242;7.956;2024-03-07T10:13:28;102093.88;;;4.45;100.00
5574;BME280;2563;52.242;7.956;2024-03-07T10:15:54;102081.56;;;4.64;100.00
5574;BME280;2563;52.242;7.956;2024-03-07T10:18:25;102059.06;;;4.82;100.00
5574;BME280;2563;52.242;7.956;2024-03-07T10:20:53;102047.09;;;5.16;100.00
5574;BME280;2563;52.242;7.956;2024-03-07T10:23:20;102017.25;;;5.14;100.00
5574;BME280;2563;52.242;7.956;2024-03-07T10:25:46;101983.50;;;4.87;100.00
5574;BME280;2563;52.242;7.956;2024-03-07T10:28:12;101937.22;;;4.71;100.00
5574;BME280;2563;52.242;7.956;2024-03-07T10:30:41;101911.69;;;4.71;100.00
5574;BME280;2563;52.242;7.956;2024-03-07T10:33:07;101897.34;;;4.74;100.00
5574;BME280;2563;52.242;7.956;2024-03-07T10:35:32;101869.97;;;4.67;100.00
5574;BME280;2563;52.242;7.956;2024-03-07T10:37:58;101846.50;;;4.83;100.00
5574;BME280;2563;52.242;7.956;2024-03-07T10:40:31;101813.28;;;4.80;100.00
5574;BME280;2563;52.242;7.956;2024-03-07T10:42:58;101789.66;;;4.90;100.00
5574;BME280;2563;52.242;7.956;2024-03-07T10:45:28;101763.03;;;4.76;100.00
5574;BME280;2563;52.242;7.956;2024-03-07T10:47:58;101735.63;;;4.66;100.00
5574;BME280;2563;52.242;7.956;2024-03-07T10:53:40;101697.19;;;4.57;100.00
5574;BME280;2563;52.242;7.956;2024-03-07T10:56:43;101706.72;;;4.65;100.00
5574;BME280;2563;52.242;7.956;2024-03-07T10:59:19;101699.94;;;4.66;100.00
5574;BME280;2563;52.242;7.956;2024-03-07T11:01:49;101703.31;;;4.65;100.00
5574;BME280;2563;52.242;7.956;2024-03-07T11:04:22;101704.00;;;4.56;100.00
5574;BME280;2563;52.242;7.956;2024-03-07T11:06:48;101705.16;;;4.72;100.00
5574;BME280;2563;52.242;7.956;2024-03-07T11:09:15;101720.47;;;4.72;100.00
5574;BME280;2563;52.242;7.956;2024-03-07T11:11:48;101711.91;;;4.70;100.00
5574;BME280;2563;52.242;7.956;2024-03-07T11:14:14;101717.28;;;4.84;100.00
5574;BME280;2563;52.242;7.956;2024-03-07T11:16:42;101722.88;;;5.13;100.00
5574;BME280;2563;52.242;7.956;2024-03-07T11:21:50;101685.53;;;5.74;100.00
5574;BME280;2563;52.242;7.956;2024-03-07T11:24:31;101643.66;;;5.63;100.00
5574;BME280;2563;52.242;7.956;2024-03-07T11:27:04;101613.00;;;5.65;100.00
5574;BME280;2563;52.242;7.956;2024-03-07T11:32:14;101556.72;;;5.57;100.00
5574;BME280;2563;52.242;7.956;2024-03-07T11:34:44;101527.75;;;5.55;100.00
5574;BME280;2563;52.242;7.956;2024-03-07T11:37:20;101504.06;;;5.65;100.00
5574;BME280;2563;52.242;7.956;2024-03-07T11:40:02;101466.69;;;5.76;100.00
5574;BME280;2563;52.242;7.956;2024-03-07T11:42:33;101438.69;;;5.84;100.00
5574;BME280;2563;52.242;7.956;2024-03-07T11:45:01;101417.44;;;5.87;100.00
5574;BME280;2563;52.242;7.956;2024-03-07T11:47:38;101380.75;;;5.80;100.00
5574;BME280;2563;52.242;7.956;2024-03-07T11:50:05;101374.84;;;5.87;100.00
5574;BME280;2563;52.242;7.956;2024-03-07T11:52:36;101362.13;;;5.92;100.00
5574;BME280;2563;52.242;7.956;2024-03-07T11:55:04;101342.81;;;6.28;100.00
5574;BME280;2563;52.242;7.956;2024-03-07T11:57:30;101317.41;;;6.65;100.00
5574;BME280;2563;52.242;7.956;2024-03-07T11:59:59;101275.72;;;6.82;100.00
5574;BME280;2563;52.242;7.956;2024-03-07T12:02:26;101235.69;;;7.40;100.00
5574;BME280;2563;52.242;7.956;2024-03-07T12:04:52;101174.22;;;7.05;100.00
5574;BME280;2563;52.242;7.956;2024-03-07T12:07:18;101141.78;;;6.91;100.00
5574;BME280;2563;52.242;7.956;2024-03-07T12:09:44;101107.69;;;7.14;100.00
5574;BME280;2563;52.242;7.956;2024-03-07T12:12:16;101070.16;;;6.85;100.00
5574;BME280;2563;52.242;7.956;2024-03-07T12:14:42;101055.63;;;7.07;100.00
5574;BME280;2563;52.242;7.956;2024-03-07T12:17:08;101035.06;;;7.30;100.00
5574;BME280;2563;52.242;7.956;2024-03-07T12:19:34;101010.34;;;7.35;100.00
5574;BME280;2563;52.242;7.956;2024-03-07T12:22:03;100989.06;;;7.10;100.00
5574;BME280;2563;52.242;7.956;2024-03-07T12:24:29;100989.06;;;7.09;100.00
5574;BME280;2563;52.242;7.956;2024-03-07T12:27:05;100988.19;;;7.17;100.00
5574;BME280;2563;52.242;7.956;2024-03-07T12:29:31;100989.91;;;7.17;100.00
5574;BME280;2563;52.242;7.956;2024-03-07T12:31:58;100989.97;;;6.68;100.00
5574;BME280;2563;52.242;7.956;2024-03-07T12:34:24;100994.28;;;6.56;100.00
5574;BME280;2563;52.242;7.956;2024-03-07T12:36:52;100989.13;;;6.82;100.00
5574;BME280;2563;52.242;7.956;2024-03-07T12:39:24;100994.25;;;6.70;100.00
5574;BME280;2563;52.242;7.956;2024-03-07T12:41:55;100994.25;;;6.72;100.00
5574;BME280;2563;52.242;7.956;2024-03-07T12:44:21;100983.97;;;7.07;100.00
5574;BME280;2563;52.242;7.956;2024-03-07T12:46:53;100977.13;;;7.09;100.00
5574;BME280;2563;52.242;7.956;2024-03-07T12:49:22;100978.91;;;6.64;100.00
5574;BME280;2563;52.242;7.956;2024-03-07T12:51:52;100990.84;;;6.34;100.00
5574;BME280;2563;52.242;7.956;2024-03-07T12:54:19;100994.25;;;6.24;100.00
5574;BME280;2563;52.242;7.956;2024-03-07T12:56:44;101004.47;;;6.20;100.00
5574;BME280;2563;52.242;7.956;2024-03-07T12:59:09;101008.66;;;5.90;100.00
5574;BME280;2563;52.242;7.956;2024-03-07T13:01:35;101020.53;;;5.75;100.00
5574;BME280;2563;52.242;7.956;2024-03-07T13:04:05;101029.09;;;5.93;100.00
5574;BME280;2563;52.242;7.956;2024-03-07T13:06:33;101024.91;;;6.07;100.00
5574;BME280;2563;52.242;7.956;2024-03-07T13:08:59;101049.63;;;6.14;100.00
5574;BME280;2563;52.242;7.956;2024-03-07T13:11:25;101057.31;;;6.24;100.00
5574;BME280;2563;52.242;7.956;2024-03-07T13:13:55;101064.06;;;5.95;100.00
5574;BME280;2563;52.242;7.956;2024-03-07T13:16:22;101064.13;;;6.29;100.00